Time;durP1;ratioP1;P1;durP2;ratioP2;P2;SDS_P1;SDS_P2;PMS_P1;PMS_P2;Temp;Humidity;BMP_temperature;BMP_pressure;BME280_temperature;BME280_humidity;BME280_pressure;Samples;Min_cycle;Max_cycle;Signal;HPM_P1;HPM_P2
2022/11/24 00:01:00;;;;;;;24.88;9.30;;;7.60;99.90;;;;;;5033873;28;20041;-64
2022/11/24 00:03:26;;;;;;;20.33;8.30;;;;;;;;;;5033890;28;20524;-63
2022/11/24 00:05:52;;;;;;;27.20;8.65;;;7.60;99.90;;;;;;5033855;28;20080;-64
2022/11/24 00:08:17;;;;;;;18.73;7.43;;;7.80;99.90;;;;;;5033627;28;20032;-63
2022/11/24 00:10:43;;;;;;;21.13;8.25;;;;;;;;;;5033625;28;20048;-63
2022/11/24 00:13:09;;;;;;;18.45;7.13;;;7.60;99.90;;;;;;5033933;28;20095;-64
2022/11/24 00:15:34;;;;;;;23.45;7.18;;;7.60;99.90;;;;;;5033477;28;20499;-63
2022/11/24 00:18:00;;;;;;;18.92;6.85;;;;;;;;;;5033896;28;20053;-63
2022/11/24 00:20:26;;;;;;;19.73;7.47;;;7.70;99.90;;;;;;5033566;28;20041;-64
2022/11/24 00:22:52;;;;;;;15.00;6.43;;;;;;;;;;5033643;28;20045;-62
2022/11/24 00:25:17;;;;;;;28.20;7.40;;;7.40;99.90;;;;;;5016058;28;20116;-64
2022/11/24 00:27:43;;;;;;;26.60;7.22;;;7.70;99.90;;;;;;5033715;28;20029;-64
2022/11/24 00:30:09;;;;;;;21.35;6.30;;;7.70;99.90;;;;;;5033686;28;20034;-63
2022/11/24 00:32:35;;;;;;;24.98;6.78;;;7.80;99.90;;;;;;5033712;28;20049;-64
2022/11/24 00:35:00;;;;;;;34.42;7.25;;;7.80;99.90;;;;;;5015928;28;20034;-64
2022/11/24 00:37:26;;;;;;;29.88;7.22;;;7.80;99.90;;;;;;5015844;28;20049;-63
2022/11/24 00:39:51;;;;;;;22.67;6.90;;;7.70;99.90;;;;;;5033294;28;20128;-63
2022/11/24 00:42:17;;;;;;;24.33;6.65;;;7.80;99.90;;;;;;5033366;28;20045;-63
2022/11/24 00:44:43;;;;;;;25.88;7.55;;;7.80;99.90;;;;;;5033566;28;20042;-63
2022/11/24 00:47:08;;;;;;;21.92;7.22;;;7.90;99.90;;;;;;5033378;28;20104;-63
2022/11/24 00:49:35;;;;;;;21.15;7.32;;;7.80;99.90;;;;;;5015591;28;20457;-64
2022/11/24 00:52:00;;;;;;;25.73;6.57;;;7.80;99.90;;;;;;5015549;28;20042;-63
2022/11/24 00:54:26;;;;;;;24.65;6.50;;;7.80;99.90;;;;;;5015810;28;20080;-63
2022/11/24 00:56:51;;;;;;;32.72;7.15;;;7.80;99.90;;;;;;5032801;28;20133;-63
2022/11/24 00:59:17;;;;;;;23.83;6.45;;;7.80;99.90;;;;;;5033457;28;20029;-63
2022/11/24 01:01:43;;;;;;;25.95;7.72;;;7.80;99.90;;;;;;5015252;28;20049;-64
2022/11/24 01:04:08;;;;;;;22.30;5.10;;;7.80;99.90;;;;;;5032949;28;20180;-63
2022/11/24 01:06:35;;;;;;;29.95;5.72;;;7.80;99.90;;;;;;5033096;28;20486;-63
2022/11/24 01:09:01;;;;;;;27.98;6.72;;;;;;;;;;5032934;28;20037;-64
2022/11/24 01:14:17;;;;;;;25.77;5.60;;;8.00;99.90;;;;;;5032850;28;20045;-63
2022/11/24 01:16:43;;;;;;;25.63;5.05;;;;;;;;;;5015089;28;20057;-63
2022/11/24 01:19:09;;;;;;;20.85;6.15;;;7.60;99.90;;;;;;5032827;28;20050;-63
2022/11/24 01:21:34;;;;;;;22.02;4.60;;;7.60;99.90;;;;;;5032783;28;20167;-63
2022/11/24 01:24:00;;;;;;;29.15;7.35;;;7.70;99.90;;;;;;5015107;28;20069;-63
2022/11/24 01:26:26;;;;;;;25.48;4.97;;;7.80;99.90;;;;;;5033973;28;20480;-63
2022/11/24 01:28:56;;;;;;;30.35;6.43;;;8.00;99.90;;;;;;5021690;28;20045;-62
2022/11/24 01:31:22;;;;;;;23.80;6.07;;;;;;;;;;5039435;28;20052;-63
2022/11/24 01:33:48;;;;;;;26.95;5.32;;;7.80;99.90;;;;;;5021541;28;20345;-63
2022/11/24 01:36:13;;;;;;;25.48;4.80;;;7.70;99.90;;;;;;5021735;28;20041;-63
2022/11/24 01:38:39;;;;;;;20.55;5.25;;;7.80;99.90;;;;;;5021481;28;20053;-63
2022/11/24 01:41:14;;;;;;;21.33;3.92;;;7.80;99.90;;;;;;5039163;28;20045;-63
2022/11/24 01:43:41;;;;;;;25.58;4.55;;;8.00;99.90;;;;;;5039203;28;20515;-63
2022/11/24 01:46:19;;;;;;;19.80;4.78;;;8.10;99.90;;;;;;5039234;28;20073;-64
2022/11/24 01:48:55;;;;;;;25.42;5.38;;;7.90;99.90;;;;;;5021733;28;20042;-63
2022/11/24 01:51:25;;;;;;;;;;;8.20;99.90;;;;;;5039745;28;20450;-64
2022/11/24 01:53:59;;;;;;;20.38;6.38;;;7.80;99.90;;;;;;5021462;28;19971;-63
2022/11/24 01:56:26;;;;;;;20.67;4.32;;;8.00;99.90;;;;;;5021462;28;20072;-64
2022/11/24 01:58:57;;;;;;;24.88;4.75;;;8.10;99.90;;;;;;5021500;28;20037;-63
2022/11/24 02:01:23;;;;;;;21.80;5.00;;;8.10;99.90;;;;;;5021563;28;20049;-63
2022/11/24 02:03:50;;;;;;;16.02;4.53;;;8.00;99.90;;;;;;5038921;28;20037;-63
2022/11/24 02:06:22;;;;;;;22.83;4.95;;;8.10;99.90;;;;;;5020660;28;20120;-62
2022/11/24 02:09:06;;;;;;;21.45;4.82;;;7.90;99.90;;;;;;5038435;28;20041;-63
2022/11/24 02:11:38;;;;;;;20.67;4.55;;;8.30;99.90;;;;;;5021344;28;20522;-63
2022/11/24 02:14:08;;;;;;;17.80;5.20;;;8.10;99.90;;;;;;5004919;28;20050;-63
2022/11/24 02:16:36;;;;;;;26.92;4.57;;;8.30;99.90;;;;;;5038751;28;20072;-64
2022/11/24 02:19:08;;;;;;;16.77;5.00;;;8.20;99.90;;;;;;5021078;28;20053;-63
2022/11/24 02:21:34;;;;;;;24.45;5.53;;;8.10;99.90;;;;;;5039083;28;20414;-63
2022/11/24 02:24:08;;;;;;;22.73;4.78;;;8.20;99.90;;;;;;5021069;28;20045;-63
2022/11/24 02:26:43;;;;;;;26.48;5.50;;;8.00;99.90;;;;;;5038909;28;20448;-63
2022/11/24 02:29:11;;;;;;;12.75;4.53;;;8.20;99.90;;;;;;5025983;28;20107;-63
2022/11/24 02:31:40;;;;;;;24.27;4.78;;;8.30;99.90;;;;;;5038890;28;20057;-63
2022/11/24 02:34:06;;;;;;;20.42;4.55;;;8.20;99.90;;;;;;5038881;28;20048;-63
2022/11/24 02:36:31;;;;;;;26.45;5.63;;;8.20;99.90;;;;;;5038962;28;20049;-63
2022/11/24 02:38:57;;;;;;;23.23;4.75;;;8.20;99.90;;;;;;5035555;28;20483;-63
2022/11/24 02:41:26;;;;;;;24.48;4.40;;;8.20;99.90;;;;;;5035541;28;20048;-63
2022/11/24 02:43:55;;;;;;;22.15;4.80;;;8.40;99.90;;;;;;5017912;28;20484;-62
2022/11/24 02:46:21;;;;;;;15.80;4.57;;;8.30;99.90;;;;;;5035482;28;20034;-64
2022/11/24 02:48:46;;;;;;;20.23;5.20;;;8.50;99.90;;;;;;5017786;28;20041;-63
2022/11/24 02:51:12;;;;;;;17.48;4.63;;;8.40;99.90;;;;;;5035375;28;20067;-64
2022/11/24 02:53:38;;;;;;;19.20;4.63;;;8.40;99.90;;;;;;5035553;28;20130;-64
2022/11/24 02:56:04;;;;;;;14.70;3.85;;;8.80;99.90;;;;;;5035274;28;20116;-64
2022/11/24 02:58:29;;;;;;;23.52;4.32;;;8.50;99.90;;;;;;5035535;28;20033;-63
2022/11/24 03:00:56;;;;;;;15.55;3.72;;;8.60;99.90;;;;;;5033329;28;20559;-63
2022/11/24 03:03:22;;;;;;;17.30;4.57;;;8.30;99.90;;;;;;4989324;28;20044;-63
2022/11/24 03:05:49;;;;;;;17.67;4.35;;;;;;;;;;5017895;28;20502;-64
2022/11/24 03:08:14;;;;;;;20.10;3.85;;;8.30;99.90;;;;;;5013625;28;20038;-63
2022/11/24 03:10:40;;;;;;;21.70;4.70;;;8.30;99.90;;;;;;5027333;28;20047;-63
2022/11/24 03:13:06;;;;;;;21.77;4.57;;;8.20;99.90;;;;;;5017371;28;20091;-63
2022/11/24 03:15:31;;;;;;;17.98;4.68;;;8.20;99.90;;;;;;5016975;28;20103;-63
2022/11/24 03:17:57;;;;;;;27.75;5.13;;;8.20;99.90;;;;;;5020958;28;20408;-63
2022/11/24 03:20:23;;;;;;;15.45;4.13;;;8.00;99.90;;;;;;5034852;28;20120;-64
2022/11/24 03:22:49;;;;;;;20.35;4.55;;;8.30;99.90;;;;;;5017489;28;20048;-64
2022/11/24 03:25:15;;;;;;;14.98;4.28;;;8.20;99.90;;;;;;5017106;28;20041;-63
2022/11/24 03:27:40;;;;;;;13.95;4.03;;;8.20;99.90;;;;;;5035000;28;20037;-63
2022/11/24 03:30:07;;;;;;;23.30;4.05;;;8.00;99.90;;;;;;5016898;28;20041;-63
2022/11/24 03:32:32;;;;;;;22.63;4.75;;;8.10;99.90;;;;;;5016916;28;20073;-63
2022/11/24 03:34:59;;;;;;;28.85;4.97;;;8.00;99.90;;;;;;5034493;28;20130;-63
2022/11/24 03:37:24;;;;;;;17.38;4.47;;;8.10;99.90;;;;;;5034729;28;20113;-64
2022/11/24 03:39:50;;;;;;;23.73;4.88;;;8.00;99.90;;;;;;5003944;28;20148;-63
2022/11/24 03:42:15;;;;;;;15.02;3.60;;;8.00;99.90;;;;;;5015635;28;20048;-63
2022/11/24 03:44:41;;;;;;;21.83;5.10;;;;;;;;;;5016965;28;20182;-63
2022/11/24 03:47:09;;;;;;;15.52;3.40;;;8.10;99.90;;;;;;5016615;28;20044;-63
2022/11/24 03:49:35;;;;;;;17.15;3.97;;;7.90;99.90;;;;;;5034044;28;20484;-63
2022/11/24 03:52:01;;;;;;;15.75;3.80;;;;;;;;;;5034262;28;20495;-63
2022/11/24 03:54:26;;;;;;;17.95;3.75;;;8.10;99.90;;;;;;5017252;28;20085;-63
2022/11/24 03:56:52;;;;;;;19.00;3.90;;;8.00;99.90;;;;;;5016435;28;20183;-63
2022/11/24 03:59:18;;;;;;;17.20;3.42;;;8.00;99.90;;;;;;5034347;28;20091;-63
2022/11/24 04:01:44;;;;;;;11.80;3.17;;;8.00;99.90;;;;;;5034073;28;20116;-63
2022/11/24 04:04:11;;;;;;;11.80;3.13;;;8.00;99.90;;;;;;5016362;28;20037;-64
2022/11/24 04:06:37;;;;;;;23.17;3.45;;;7.90;99.90;;;;;;5034362;28;20438;-64
2022/11/24 04:09:03;;;;;;;15.68;3.25;;;8.20;99.90;;;;;;5016041;28;20079;-63
2022/11/24 04:14:12;;;;;;;20.58;3.95;;;7.90;99.90;;;;;;5016106;28;20049;-63
2022/11/24 04:16:38;;;;;;;19.33;3.83;;;7.80;99.90;;;;;;5033689;28;20053;-63
2022/11/24 04:19:05;;;;;;;17.02;4.63;;;7.80;99.90;;;;;;5033903;28;20467;-64
2022/11/24 04:21:30;;;;;;;12.88;3.17;;;8.00;99.90;;;;;;5033592;28;20381;-62
2022/11/24 04:23:56;;;;;;;10.45;3.45;;;7.70;99.90;;;;;;5033697;28;20044;-63
2022/11/24 04:26:22;;;;;;;16.48;4.43;;;7.90;99.90;;;;;;5015886;28;20488;-63
2022/11/24 04:28:47;;;;;;;20.50;3.53;;;7.80;99.90;;;;;;5016295;28;20084;-63
2022/11/24 04:31:13;;;;;;;22.52;4.53;;;7.70;99.90;;;;;;5033614;28;20049;-63
2022/11/24 04:33:39;;;;;;;18.98;3.92;;;7.60;99.90;;;;;;5033596;28;20168;-63
2022/11/24 04:36:04;;;;;;;17.13;4.15;;;7.80;99.90;;;;;;5015939;28;20048;-64
2022/11/24 04:38:30;;;;;;;16.25;4.88;;;7.70;99.90;;;;;;5015619;28;20476;-63
2022/11/24 04:41:01;;;;;;;20.58;3.95;;;7.70;99.90;;;;;;5033541;28;20045;-63
2022/11/24 04:43:26;;;;;;;18.08;3.20;;;7.50;99.90;;;;;;5033363;28;20064;-63
2022/11/24 04:45:52;;;;;;;15.55;3.95;;;7.60;99.90;;;;;;5033405;28;20496;-63
2022/11/24 04:48:17;;;;;;;15.63;4.03;;;7.60;99.90;;;;;;5015977;28;20487;-64
2022/11/24 04:50:43;;;;;;;16.77;4.30;;;7.70;99.90;;;;;;5033285;28;20594;-64
2022/11/24 04:53:10;;;;;;;17.25;3.25;;;7.60;99.90;;;;;;5015753;28;20537;-63
2022/11/24 04:55:37;;;;;;;18.33;3.67;;;7.60;99.90;;;;;;5015346;28;20091;-63
2022/11/24 04:58:03;;;;;;;13.68;3.78;;;7.70;99.90;;;;;;5033257;28;20037;-63
2022/11/24 05:00:28;;;;;;;16.70;3.58;;;7.30;99.90;;;;;;4999214;28;20041;-63
2022/11/24 05:02:54;;;;;;;17.75;3.53;;;7.50;99.90;;;;;;5014875;28;20151;-63
2022/11/24 05:05:20;;;;;;;16.08;3.10;;;;;;;;;;5015337;28;20092;-63
2022/11/24 05:07:45;;;;;;;10.40;3.78;;;7.70;99.90;;;;;;5032413;28;20475;-63
2022/11/24 05:10:53;;;;;;;17.38;3.78;;;7.60;99.90;;;;;;5006569;28;20045;-64
2022/11/24 05:13:09;;;;;;;19.00;3.88;;;7.50;99.90;;;;;;4996693;28;20049;-64
2022/11/24 05:15:37;;;;;;;20.40;3.67;;;7.30;99.90;;;;;;5032654;28;20419;-64
2022/11/24 05:18:05;;;;;;;22.20;4.95;;;7.50;99.90;;;;;;5014938;28;20585;-63
2022/11/24 05:20:30;;;;;;;17.90;4.05;;;7.40;99.90;;;;;;5015154;28;20045;-64
2022/11/24 05:23:01;;;;;;;18.98;3.33;;;7.50;99.90;;;;;;5032799;28;20045;-63
2022/11/24 05:25:27;;;;;;;22.50;5.55;;;7.40;99.90;;;;;;5015063;28;20045;-63
2022/11/24 05:27:52;;;;;;;19.02;4.72;;;7.40;99.90;;;;;;5033000;28;20380;-64
2022/11/24 05:30:18;;;;;;;14.98;3.50;;;7.40;99.90;;;;;;5032923;28;20487;-64
2022/11/24 05:32:44;;;;;;;16.30;4.10;;;7.50;99.90;;;;;;5032601;28;20125;-63
2022/11/24 05:35:09;;;;;;;19.05;3.63;;;7.50;99.90;;;;;;5032567;28;20064;-63
2022/11/24 05:37:36;;;;;;;19.83;5.50;;;7.60;99.90;;;;;;5032931;28;20479;-63
2022/11/24 05:40:02;;;;;;;20.58;4.88;;;7.60;99.90;;;;;;5015000;28;20084;-63
2022/11/24 05:42:39;;;;;;;14.68;3.53;;;7.60;99.90;;;;;;5032815;28;20107;-64
2022/11/24 05:45:08;;;;;;;16.30;4.10;;;;;;;;;;5015122;28;20057;-63
2022/11/24 05:47:34;;;;;;;17.83;3.45;;;7.50;99.90;;;;;;5015025;28;20091;-64
2022/11/24 05:49:59;;;;;;;15.48;3.42;;;7.60;99.90;;;;;;5032575;28;20626;-63
2022/11/24 05:52:25;;;;;;;19.85;3.70;;;7.60;99.90;;;;;;5032813;28;20069;-63
2022/11/24 05:54:51;;;;;;;15.50;3.65;;;7.50;99.90;;;;;;5032561;28;20092;-63
2022/11/24 05:57:17;;;;;;;18.05;3.28;;;7.60;99.90;;;;;;5014740;28;20135;-63
2022/11/24 05:59:43;;;;;;;23.30;5.30;;;7.60;99.90;;;;;;5032600;28;20088;-63
2022/11/24 06:02:09;;;;;;;12.45;3.17;;;7.70;99.90;;;;;;5032362;28;20044;-63
2022/11/24 06:04:35;;;;;;;20.38;3.47;;;7.70;99.90;;;;;;5014783;28;20033;-63
2022/11/24 06:07:02;;;;;;;15.35;3.67;;;7.60;99.90;;;;;;5014792;28;20467;-63
2022/11/24 06:09:28;;;;;;;17.33;3.20;;;7.60;99.90;;;;;;5022816;28;20044;-64
2022/11/24 06:11:53;;;;;;;19.65;3.58;;;7.60;99.90;;;;;;5032539;28;20122;-63
2022/11/24 06:14:19;;;;;;;16.98;3.80;;;7.70;99.90;;;;;;5035524;28;20484;-63
2022/11/24 06:16:44;;;;;;;22.73;3.55;;;7.60;99.90;;;;;;5018018;28;20050;-63
2022/11/24 06:19:10;;;;;;;19.17;3.03;;;7.60;99.90;;;;;;5018378;28;20120;-63
2022/11/24 06:21:36;;;;;;;13.82;3.58;;;7.60;99.90;;;;;;5018325;28;20089;-64
2022/11/24 06:24:02;;;;;;;12.70;3.25;;;7.70;99.90;;;;;;5036172;28;20525;-64
2022/11/24 06:26:28;;;;;;;19.08;3.90;;;7.60;99.90;;;;;;5018504;28;20052;-63
2022/11/24 06:28:54;;;;;;;18.52;2.95;;;7.80;99.90;;;;;;5035989;28;20042;-63
2022/11/24 06:31:20;;;;;;;18.52;4.55;;;7.60;99.90;;;;;;5018413;28;20071;-64
2022/11/24 06:33:46;;;;;;;18.90;4.72;;;7.60;99.90;;;;;;5018044;28;20539;-63
2022/11/24 06:36:12;;;;;;;18.83;3.42;;;7.50;99.90;;;;;;5018051;28;20049;-64
2022/11/24 06:38:38;;;;;;;14.68;3.22;;;7.60;99.90;;;;;;5035898;28;20041;-63
2022/11/24 06:41:07;;;;;;;13.98;3.53;;;7.70;99.90;;;;;;5035724;28;20582;-64
2022/11/24 06:43:33;;;;;;;15.48;4.53;;;7.70;99.90;;;;;;5017789;28;20041;-63
2022/11/24 06:45:59;;;;;;;17.80;3.63;;;7.70;99.90;;;;;;5001491;28;20045;-63
2022/11/24 06:48:25;;;;;;;13.05;3.55;;;7.70;99.90;;;;;;5035809;28;20110;-63
2022/11/24 06:50:52;;;;;;;23.92;4.10;;;7.60;99.90;;;;;;5017679;28;20492;-63
2022/11/24 06:53:18;;;;;;;14.95;3.40;;;7.60;99.90;;;;;;5017800;28;20045;-64
2022/11/24 06:55:45;;;;;;;18.83;4.35;;;7.60;99.90;;;;;;5017545;28;20095;-63
2022/11/24 06:58:11;;;;;;;16.55;3.85;;;7.60;99.90;;;;;;5035404;28;20611;-63
2022/11/24 07:00:37;;;;;;;17.98;3.63;;;7.50;99.90;;;;;;5035151;28;20041;-63
2022/11/24 07:03:03;;;;;;;19.05;4.05;;;7.50;99.90;;;;;;5035508;28;20140;-64
2022/11/24 07:05:28;;;;;;;14.52;3.35;;;7.50;99.90;;;;;;5017361;28;20124;-63
2022/11/24 07:07:54;;;;;;;16.48;4.68;;;7.60;99.90;;;;;;5015351;28;20491;-63
2022/11/24 07:10:19;;;;;;;17.60;4.32;;;7.60;99.90;;;;;;5027620;28;20037;-63
2022/11/24 07:12:45;;;;;;;18.70;4.70;;;7.60;99.90;;;;;;5017287;28;20045;-63
2022/11/24 07:15:11;;;;;;;19.30;4.40;;;7.70;99.90;;;;;;5034696;28;20049;-64
2022/11/24 07:17:40;;;;;;;16.70;4.00;;;7.90;99.90;;;;;;5035176;28;20033;-64
2022/11/24 07:20:07;;;;;;;22.95;3.55;;;7.70;99.90;;;;;;5017131;28;20037;-64
2022/11/24 07:22:33;;;;;;;15.95;4.43;;;;;;;;;;5017146;28;20121;-64
2022/11/24 07:24:59;;;;;;;15.90;4.13;;;7.80;99.90;;;;;;5013139;28;20053;-63
2022/11/24 07:27:26;;;;;;;17.45;4.75;;;7.80;99.90;;;;;;5016993;28;20087;-63
2022/11/24 07:29:52;;;;;;;17.10;4.18;;;;;;;;;;5034471;28;20037;-63
2022/11/24 07:32:18;;;;;;;19.02;4.43;;;7.80;99.90;;;;;;5034532;28;20038;-62
2022/11/24 07:34:43;;;;;;;17.40;4.90;;;7.80;99.90;;;;;;5034677;28;20083;-62
2022/11/24 07:37:09;;;;;;;16.83;4.15;;;7.80;99.90;;;;;;5034543;28;20041;-62
2022/11/24 07:39:35;;;;;;;19.45;4.43;;;;;;;;;;5034542;28;20033;-61
2022/11/24 07:42:00;;;;;;;16.13;4.22;;;7.70;99.90;;;;;;5034197;28;20044;-60
2022/11/24 07:44:26;;;;;;;14.10;4.78;;;7.70;99.90;;;;;;5016782;28;20091;-61
2022/11/24 07:46:52;;;;;;;16.33;4.05;;;;;;;;;;5034424;28;20034;-62
2022/11/24 07:49:18;;;;;;;14.40;5.22;;;;;;;;;;5031583;28;20108;-61
2022/11/24 07:51:44;;;;;;;13.98;3.90;;;7.70;99.90;;;;;;5031807;28;20041;-61
2022/11/24 07:54:10;;;;;;;17.08;4.57;;;7.80;99.90;;;;;;5016499;28;20048;-61
2022/11/24 07:56:35;;;;;;;20.15;4.90;;;7.70;99.90;;;;;;5034027;28;20056;-62
2022/11/24 07:59:01;;;;;;;20.48;5.03;;;7.80;99.90;;;;;;5033340;28;20510;-61
2022/11/24 08:01:27;;;;;;;11.80;5.28;;;7.90;99.90;;;;;;5032094;28;20052;-59
2022/11/24 08:03:53;;;;;;;18.95;4.50;;;;;;;;;;5032230;28;20411;-62
2022/11/24 08:06:19;;;;;;;15.75;5.85;;;8.00;99.90;;;;;;5013146;28;20041;-63
2022/11/24 08:08:45;;;;;;;20.17;5.10;;;;;;;;;;5004776;28;20048;-63
2022/11/24 08:11:13;;;;;;;13.52;4.28;;;8.10;99.90;;;;;;5016897;28;20037;-60
2022/11/24 08:13:39;;;;;;;14.55;4.95;;;8.20;99.90;;;;;;4997186;28;20046;-61
2022/11/24 08:16:08;;;;;;;18.65;6.55;;;8.20;99.90;;;;;;5014565;28;20422;-61
2022/11/24 08:18:35;;;;;;;15.55;5.20;;;8.40;99.90;;;;;;5033735;28;20077;-60
2022/11/24 08:21:01;;;;;;;13.40;5.22;;;8.50;99.90;;;;;;5016091;28;20046;-61
2022/11/24 08:23:27;;;;;;;10.57;4.82;;;;;;;;;;5015937;28;20041;-61
2022/11/24 08:25:53;;;;;;;14.07;5.10;;;8.70;99.90;;;;;;5033517;28;20041;-62
2022/11/24 08:28:20;;;;;;;19.60;5.32;;;8.70;99.90;;;;;;5033505;28;20113;-62
2022/11/24 08:30:45;;;;;;;10.50;3.90;;;8.80;99.90;;;;;;5033873;28;20037;-61
2022/11/24 08:33:11;;;;;;;14.95;4.75;;;8.90;99.90;;;;;;5033729;28;20102;-62
2022/11/24 08:35:37;;;;;;;9.15;4.38;;;9.10;99.90;;;;;;5015553;28;20046;-62
2022/11/24 08:38:04;;;;;;;14.65;4.18;;;9.20;99.90;;;;;;5032724;28;20033;-62
2022/11/24 08:40:30;;;;;;;12.38;3.72;;;9.20;99.90;;;;;;5015710;28;20476;-61
2022/11/24 08:42:59;;;;;;;12.15;4.43;;;9.20;99.90;;;;;;5015842;28;20049;-61
2022/11/24 08:45:26;;;;;;;11.23;3.85;;;9.50;99.90;;;;;;5033371;28;20034;-61
2022/11/24 08:47:54;;;;;;;8.38;3.63;;;9.70;99.90;;;;;;5015502;28;20049;-61
2022/11/24 08:50:21;;;;;;;10.68;3.85;;;9.80;99.90;;;;;;5031406;28;20033;-61
2022/11/24 08:52:46;;;;;;;12.25;3.78;;;10.70;99.90;;;;;;5014355;28;20108;-62
2022/11/24 08:55:12;;;;;;;6.28;3.25;;;10.40;99.90;;;;;;5014939;28;20041;-62
2022/11/24 08:57:38;;;;;;;9.15;2.92;;;10.50;99.90;;;;;;5029800;28;20128;-62
2022/11/24 09:00:05;;;;;;;10.90;3.13;;;10.50;99.90;;;;;;5015028;28;20040;-62
2022/11/24 09:02:30;;;;;;;7.97;3.05;;;10.40;99.90;;;;;;5016527;28;20067;-62
2022/11/24 09:04:56;;;;;;;8.60;3.28;;;10.40;99.90;;;;;;5016755;28;20033;-63
2022/11/24 09:07:22;;;;;;;6.43;2.78;;;10.40;99.90;;;;;;5002778;28;20038;-63
2022/11/24 09:09:47;;;;;;;8.50;2.97;;;10.40;99.90;;;;;;5018271;28;20045;-62
2022/11/24 09:12:13;;;;;;;6.45;2.50;;;10.40;99.90;;;;;;5012925;28;20125;-63
2022/11/24 09:14:38;;;;;;;10.20;2.75;;;10.40;99.90;;;;;;5022857;28;20049;-62
2022/11/24 09:17:04;;;;;;;3.80;2.00;;;10.40;99.90;;;;;;5029091;28;20045;-61
2022/11/24 09:19:29;;;;;;;9.60;2.28;;;10.50;99.90;;;;;;5008857;28;20407;-62
2022/11/24 09:21:55;;;;;;;8.13;1.73;;;10.40;99.90;;;;;;5013772;28;20100;-62
2022/11/24 09:24:20;;;;;;;4.80;2.15;;;10.30;99.90;;;;;;5032761;28;20120;-62
2022/11/24 09:26:46;;;;;;;5.45;2.40;;;10.10;99.90;;;;;;5032862;28;20040;-62
2022/11/24 09:29:12;;;;;;;4.65;2.50;;;9.90;99.90;;;;;;5032610;28;20033;-61
2022/11/24 09:31:38;;;;;;;8.07;1.98;;;9.70;99.90;;;;;;5015102;28;20045;-61
2022/11/24 09:34:06;;;;;;;5.00;1.75;;;9.70;99.90;;;;;;5014902;28;20168;-62
2022/11/24 09:36:33;;;;;;;6.95;2.72;;;9.60;99.90;;;;;;5032823;28;20042;-62
2022/11/24 09:38:58;;;;;;;5.80;1.95;;;9.60;99.90;;;;;;5032659;28;20041;-62
2022/11/24 09:41:27;;;;;;;3.92;2.25;;;9.70;99.90;;;;;;5032576;28;20040;-62
2022/11/24 09:44:35;;;;;;;4.20;1.70;;;9.60;99.90;;;;;;5032618;28;20042;-62
2022/11/24 09:47:37;;;;;;;4.10;2.22;;;9.80;99.90;;;;;;5014977;28;20109;-62
2022/11/24 09:50:19;;;;;;;4.35;2.03;;;9.50;99.90;;;;;;5029919;28;20040;-62
2022/11/24 09:52:59;;;;;;;5.75;2.10;;;9.50;99.90;;;;;;5034539;28;20084;-61
2022/11/24 09:55:39;;;;;;;4.05;2.13;;;9.40;99.90;;;;;;5036494;28;20053;-61
2022/11/24 09:58:30;;;;;;;3.92;2.35;;;9.30;99.90;;;;;;5036451;28;20037;-61
2022/11/24 10:00:56;;;;;;;7.93;2.67;;;9.30;99.90;;;;;;5036402;28;20059;-62
2022/11/24 10:03:28;;;;;;;5.05;2.50;;;9.30;99.90;;;;;;5036314;28;20453;-62
2022/11/24 10:05:54;;;;;;;5.65;2.20;;;9.70;99.90;;;;;;5036304;28;20044;-62
2022/11/24 10:08:32;;;;;;;6.95;2.72;;;;;;;;;;5036054;28;20080;-61
2022/11/24 10:11:00;;;;;;;6.88;2.97;;;9.60;99.90;;;;;;5018638;28;20041;-62
2022/11/24 10:13:41;;;;;;;5.47;2.92;;;9.60;99.90;;;;;;5036028;28;20535;-62
2022/11/24 10:16:16;;;;;;;6.25;3.00;;;9.80;99.90;;;;;;5017941;28;20062;-62
2022/11/24 10:18:54;;;;;;;7.38;3.08;;;10.10;99.90;;;;;;5005939;28;20466;-61
2022/11/24 10:21:45;;;;;;;12.45;3.60;;;9.80;99.90;;;;;;5035889;28;20081;-62
2022/11/24 10:24:40;;;;;;;6.45;3.50;;;10.00;99.90;;;;;;5026111;28;20419;-61
2022/11/24 10:27:22;;;;;;;8.02;3.55;;;10.00;99.90;;;;;;5004579;28;20037;-62
2022/11/24 10:29:50;;;;;;;5.93;2.83;;;10.10;99.90;;;;;;5035971;28;20396;-62
2022/11/24 10:32:25;;;;;;;5.03;3.53;;;9.90;99.90;;;;;;5018080;28;20127;-62
2022/11/24 10:34:51;;;;;;;7.47;4.50;;;;;;;;;;5035813;28;20175;-64
2022/11/24 10:37:24;;;;;;;8.73;3.00;;;10.10;99.90;;;;;;5018437;28;20111;-61
2022/11/24 10:40:08;;;;;;;6.75;3.35;;;10.40;99.90;;;;;;5035052;28;20092;-62
2022/11/24 10:42:39;;;;;;;7.13;2.92;;;10.60;99.90;;;;;;5023493;28;20037;-61
2022/11/24 10:45:14;;;;;;;8.00;2.90;;;10.70;99.90;;;;;;5035651;28;20042;-62
2022/11/24 10:47:42;;;;;;;11.18;3.70;;;10.40;99.90;;;;;;5035730;28;20116;-62
2022/11/24 10:50:19;;;;;;;9.00;3.55;;;10.70;99.90;;;;;;5017283;28;20060;-62
2022/11/24 10:53:10;;;;;;;6.53;2.28;;;10.70;99.90;;;;;;5017684;28;20087;-61
2022/11/24 10:56:01;;;;;;;7.65;2.83;;;10.80;99.90;;;;;;5016948;28;20507;-62
2022/11/24 10:58:32;;;;;;;9.13;3.42;;;10.70;99.90;;;;;;5025812;28;20049;-62
2022/11/24 11:01:11;;;;;;;9.50;3.47;;;10.70;99.90;;;;;;5033927;28;20236;-62
2022/11/24 11:03:46;;;;;;;15.77;2.97;;;10.80;99.90;;;;;;5017570;28;20052;-60
2022/11/24 11:06:13;;;;;;;;;;;10.80;99.90;;;;;;5018231;28;20424;-62
2022/11/24 11:08:39;;;;;;;6.82;2.47;;;10.70;99.90;;;;;;5035355;28;19921;-61
2022/11/24 11:11:27;;;;;;;10.73;3.85;;;10.80;99.90;;;;;;5017341;28;20042;-62
2022/11/24 11:14:01;;;;;;;9.05;3.17;;;10.80;99.90;;;;;;5035355;28;20045;-62
2022/11/24 11:16:39;;;;;;;7.65;2.83;;;10.90;99.90;;;;;;5013937;28;20062;-62
2022/11/24 11:19:37;;;;;;;11.90;3.88;;;10.80;99.90;;;;;;5035074;28;20568;-61
2022/11/24 11:22:05;;;;;;;7.72;3.22;;;;;;;;;;5004294;28;20044;-61
2022/11/24 11:24:31;;;;;;;7.93;3.10;;;10.80;99.90;;;;;;5035179;28;20045;-62
2022/11/24 11:27:15;;;;;;;12.25;3.80;;;10.80;99.90;;;;;;5034922;28;20048;-62
2022/11/24 11:29:41;;;;;;;10.75;3.03;;;10.90;99.90;;;;;;5034980;28;20073;-62
2022/11/24 11:32:20;;;;;;;9.38;3.35;;;10.90;99.90;;;;;;5034909;28;20038;-61
2022/11/24 11:34:47;;;;;;;11.90;2.85;;;10.90;99.90;;;;;;5017205;28;20051;-62
2022/11/24 11:37:14;;;;;;;13.07;3.28;;;10.90;99.90;;;;;;5016953;28;20044;-62
2022/11/24 11:40:12;;;;;;;7.40;3.53;;;11.20;99.90;;;;;;5034624;28;20519;-62
2022/11/24 11:42:43;;;;;;;11.75;3.50;;;11.00;99.90;;;;;;5022141;28;20100;-63
2022/11/24 11:45:23;;;;;;;10.75;3.67;;;;;;;;;;5034572;28;20092;-62
2022/11/24 11:48:15;;;;;;;10.23;3.88;;;11.40;99.90;;;;;;5034604;28;20072;-61
2022/11/24 11:51:02;;;;;;;8.95;4.18;;;11.40;99.90;;;;;;5007239;28;20061;-63
2022/11/24 11:53:52;;;;;;;12.10;4.30;;;11.50;99.90;;;;;;5015190;28;20037;-62
2022/11/24 11:56:28;;;;;;;13.10;4.00;;;11.60;99.90;;;;;;5003068;28;20187;-62
2022/11/24 11:59:21;;;;;;;9.50;3.30;;;11.90;99.90;;;;;;5017780;28;20392;-62
2022/11/24 12:01:54;;;;;;;7.25;3.67;;;;;;;;;;5014585;28;20042;-62
2022/11/24 12:04:42;;;;;;;9.65;3.72;;;12.60;99.90;;;;;;5016210;28;20100;-62
2022/11/24 12:07:42;;;;;;;12.40;4.55;;;12.50;99.90;;;;;;4996160;28;20049;-63
2022/11/24 12:10:21;;;;;;;11.57;3.53;;;12.00;99.90;;;;;;5018116;28;20084;-62
2022/11/24 12:13:25;;;;;;;10.88;3.40;;;11.80;99.90;;;;;;5015056;28;20124;-62
2022/11/24 12:15:57;;;;;;;12.57;4.50;;;11.70;99.90;;;;;;5033743;28;20132;-62
2022/11/24 12:18:32;;;;;;;10.35;3.60;;;11.70;99.90;;;;;;5016375;28;20085;-60
2022/11/24 12:21:24;;;;;;;10.95;4.55;;;11.60;99.90;;;;;;5014840;28;20099;-59
2022/11/24 12:23:50;;;;;;;11.38;4.05;;;11.70;99.90;;;;;;5022221;28;20048;-60
2022/11/24 12:26:59;;;;;;;10.40;3.55;;;12.00;99.90;;;;;;5015624;28;20041;-61
2022/11/24 12:29:39;;;;;;;16.98;4.60;;;12.60;99.90;;;;;;4941672;29;20043;-61
2022/11/24 12:32:17;;;;;;;13.40;3.53;;;13.50;99.90;;;;;;4953016;29;20043;-62
2022/11/24 12:35:04;;;;;;;9.15;3.10;;;14.00;99.90;;;;;;5007037;28;20056;-60
2022/11/24 12:37:55;;;;;;;13.00;3.50;;;14.10;99.90;;;;;;5033578;28;20120;-60
2022/11/24 12:40:32;;;;;;;12.38;3.08;;;14.50;99.90;;;;;;5033460;28;20037;-62
2022/11/24 12:43:12;;;;;;;7.88;3.20;;;14.30;99.90;;;;;;5033451;28;20092;-59
2022/11/24 12:45:45;;;;;;;13.85;3.25;;;13.70;99.90;;;;;;5032822;28;20068;-60
2022/11/24 12:48:17;;;;;;;9.40;2.95;;;13.60;99.90;;;;;;5033294;28;20065;-59
2022/11/24 12:50:44;;;;;;;15.32;3.70;;;13.20;99.90;;;;;;5015652;28;20091;-59
2022/11/24 12:53:13;;;;;;;13.07;4.97;;;13.30;99.90;;;;;;5033154;28;20042;-59
2022/11/24 12:55:39;;;;;;;9.27;3.17;;;13.30;99.90;;;;;;5032991;28;20045;-59
2022/11/24 12:58:15;;;;;;;10.30;2.70;;;13.40;99.90;;;;;;5032906;28;20041;-59
2022/11/24 13:00:57;;;;;;;14.07;3.17;;;13.40;99.90;;;;;;5015280;28;20045;-62
2022/11/24 13:03:35;;;;;;;12.98;3.05;;;13.00;99.90;;;;;;5031079;28;20039;-62
2022/11/24 13:06:16;;;;;;;9.55;3.90;;;13.10;99.90;;;;;;5012943;28;20033;-64
2022/11/24 13:08:42;;;;;;;15.75;3.15;;;;;;;;;;5025044;28;20543;-64
2022/11/24 13:11:20;;;;;;;13.32;3.08;;;13.00;99.90;;;;;;5008692;28;20045;-64
2022/11/24 13:13:57;;;;;;;13.38;2.70;;;12.90;99.90;;;;;;5028808;28;20427;-63